Terminal Aerodrome Forecast
Issued by NWS Topeka, KS

Home | Current Version | Previous Version | Graphics & Text | Print | Product List | Glossary On
Versions: 1 2 3 4 5 6 7 8 9 10 11 12 13 14 15 16 17 18 19 20 21 22 23
000
FTUS43 KTOP 200800 AAA
TAFTOP
TAF AMD
KTOP 200851Z 2009/2106 00000KT 3SM BR SKC
      TEMPO 2009/2013 1/2SM FG BKN002
     FM201400 01006KT P6SM SKC=

USA.gov is the U.S. government's official web portal to all federal, state and local government web resources and services.